Time;durP1;ratioP1;P1;durP2;ratioP2;P2;SDS_P1;SDS_P2;PMS_P1;PMS_P2;Temp;Humidity;BMP_temperature;BMP_pressure;BME280_temperature;BME280_humidity;BME280_pressure;Samples;Min_cycle;Max_cycle;Signal;HPM_P1;HPM_P2
2023/09/30 00:01:01;;;;;;;24.20;10.50;;;;;;;13.47;64.21;101631.41;107641;1257;110970;-61
2023/09/30 00:03:33;;;;;;;38.80;10.80;;;;;;;13.39;64.12;101629.67;107597;1253;108748;-62
2023/09/30 00:06:03;;;;;;;34.00;10.50;;;;;;;13.35;63.93;101628.10;107550;1254;108619;-62
2023/09/30 00:08:32;;;;;;;20.60;9.70;;;;;;;13.33;63.88;101627.14;107594;1255;97831;-62
2023/09/30 00:11:00;;;;;;;23.60;10.10;;;;;;;13.33;64.22;101628.77;107592;1255;98439;-63
2023/09/30 00:13:28;;;;;;;19.70;10.10;;;;;;;13.31;64.41;101624.61;107562;1254;112099;-63
2023/09/30 00:15:56;;;;;;;21.80;10.70;;;;;;;13.29;65.16;101625.87;107645;1255;109658;-61
2023/09/30 00:18:25;;;;;;;26.10;10.30;;;;;;;13.28;64.83;101623.78;107554;1254;107808;-61
2023/09/30 00:20:53;;;;;;;19.50;10.00;;;;;;;13.28;64.54;101625.55;107594;1255;97826;-62
2023/09/30 00:23:21;;;;;;;25.20;9.50;;;;;;;13.28;64.38;101624.36;107591;1256;97827;-63
2023/09/30 00:25:50;;;;;;;25.10;9.90;;;;;;;13.27;64.31;101624.58;107584;1256;111659;-63
2023/09/30 00:28:19;;;;;;;18.60;9.60;;;;;;;13.27;64.36;101627.63;107574;1254;109471;-65
2023/09/30 00:30:47;;;;;;;26.40;10.00;;;;;;;13.25;64.55;101623.71;107545;1255;108175;-62
2023/09/30 00:33:16;;;;;;;22.00;9.30;;;;;;;13.20;64.35;101629.86;107584;1254;97834;-62
2023/09/30 00:35:46;;;;;;;33.30;10.00;;;;;;;13.18;64.60;101627.73;107587;1256;97841;-62
2023/09/30 00:38:14;;;;;;;27.10;10.10;;;;;;;13.14;64.97;101626.20;107561;1254;111983;-62
2023/09/30 00:40:48;;;;;;;29.20;10.70;;;;;;;13.11;64.76;101625.76;107619;1254;109907;-63
2023/09/30 00:43:20;;;;;;;35.90;9.40;;;;;;;13.10;64.65;101621.88;107635;1254;107071;-62
2023/09/30 00:46:01;;;;;;;19.70;8.90;;;;;;;13.10;64.70;101622.11;107552;1254;97883;-63
2023/09/30 00:48:30;;;;;;;21.30;9.50;;;;;;;13.04;65.41;101626.02;107537;1251;97886;-62
2023/09/30 00:50:58;;;;;;;25.80;13.10;;;;;;;12.98;65.14;101621.45;107650;1251;111226;-63
2023/09/30 00:53:27;;;;;;;32.50;9.90;;;;;;;12.99;65.01;101627.67;107545;1254;108520;-62
2023/09/30 00:55:56;;;;;;;29.10;10.30;;;;;;;12.97;64.85;101630.15;107564;1256;108514;-66
2023/09/30 00:58:28;;;;;;;23.30;9.70;;;;;;;12.94;64.85;101625.25;107614;1253;97825;-63
2023/09/30 01:00:59;;;;;;;27.80;9.10;;;;;;;12.91;64.76;101625.84;107589;1254;98353;-62
2023/09/30 01:03:28;;;;;;;21.00;9.80;;;;;;;12.88;65.10;101626.16;107638;1254;110990;-62
2023/09/30 01:05:56;;;;;;;21.90;9.40;;;;;;;12.86;65.17;101623.05;107624;1255;110076;-62
2023/09/30 01:08:24;;;;;;;15.20;8.50;;;;;;;12.85;65.47;101618.77;107560;1256;108524;-62
2023/09/30 01:10:52;;;;;;;19.30;9.10;;;;;;;12.80;65.61;101617.42;107537;1254;97848;-62
2023/09/30 01:13:20;;;;;;;28.00;9.30;;;;;;;12.75;65.51;101618.95;107564;1251;98446;-62
2023/09/30 01:15:49;;;;;;;20.60;8.80;;;;;;;12.73;65.61;101621.46;107538;1251;112315;-62
2023/09/30 01:18:17;;;;;;;13.90;8.80;;;;;;;12.68;65.77;101620.04;107649;1257;110116;-63
2023/09/30 01:20:46;;;;;;;20.10;8.80;;;;;;;12.66;65.84;101615.16;107605;1253;107881;-62
2023/09/30 01:23:14;;;;;;;24.90;9.80;;;;;;;12.63;65.89;101615.20;107541;1256;97893;-63
2023/09/30 01:25:44;;;;;;;25.80;9.80;;;;;;;12.64;66.01;101614.06;107652;1253;98354;-63
2023/09/30 01:28:14;;;;;;;28.20;8.40;;;;;;;12.64;65.95;101614.81;107617;1251;111686;-63
2023/09/30 01:30:44;;;;;;;22.60;9.00;;;;;;;12.62;65.97;101615.15;107548;1254;109817;-63
2023/09/30 01:33:13;;;;;;;15.70;9.20;;;;;;;12.59;66.27;101616.27;107597;1251;108199;-62
2023/09/30 01:35:42;;;;;;;23.70;8.60;;;;;;;12.57;66.21;101612.33;107619;1251;97895;-61
2023/09/30 01:38:10;;;;;;;15.00;8.40;;;;;;;12.57;66.20;101615.20;107533;1254;97625;-61
2023/09/30 01:40:39;;;;;;;19.50;8.80;;;;;;;12.55;66.72;101613.77;107618;1255;110655;-62
2023/09/30 01:43:08;;;;;;;24.10;8.80;;;;;;;12.53;66.37;101611.75;107621;1251;108689;-62
2023/09/30 01:45:36;;;;;;;25.50;9.70;;;;;;;12.52;66.50;101611.61;107455;1257;106795;-62
2023/09/30 01:48:05;;;;;;;16.80;8.50;;;;;;;12.51;66.45;101612.65;107472;1254;97813;-62
2023/09/30 01:50:34;;;;;;;17.80;9.80;;;;;;;12.47;66.37;101612.20;107595;1254;98470;-64
2023/09/30 01:53:03;;;;;;;24.50;9.60;;;;;;;12.45;66.53;101610.41;107552;1254;111308;-62
2023/09/30 01:55:31;;;;;;;18.90;8.50;;;;;;;12.39;67.00;101608.59;107591;1254;108712;-62
2023/09/30 01:57:59;;;;;;;22.90;8.90;;;;;;;12.32;67.04;101608.61;107482;1253;107584;-61
2023/09/30 02:00:28;;;;;;;29.30;8.80;;;;;;;12.27;67.03;101607.05;107508;1254;97916;-62
2023/09/30 02:02:57;;;;;;;16.90;9.30;;;;;;;12.23;67.36;101607.02;107539;1254;98356;-63
2023/09/30 02:05:26;;;;;;;21.10;8.70;;;;;;;12.22;67.32;101608.73;107555;1254;110796;-63
2023/09/30 02:07:54;;;;;;;28.90;9.10;;;;;;;12.24;67.23;101607.68;107572;1255;109264;-63
2023/09/30 02:10:23;;;;;;;18.90;8.80;;;;;;;12.23;67.29;101607.20;107580;1253;108641;-62
2023/09/30 02:12:51;;;;;;;22.90;8.90;;;;;;;12.23;67.32;101604.70;107552;1254;97729;-62
2023/09/30 02:15:20;;;;;;;20.90;8.40;;;;;;;12.24;67.30;101601.22;107653;1254;97710;-62
2023/09/30 02:17:49;;;;;;;26.30;8.90;;;;;;;12.24;67.22;101598.65;107662;1254;111993;-62
2023/09/30 02:20:22;;;;;;;28.20;9.50;;;;;;;12.23;67.16;101597.51;107558;1254;109877;-63
2023/09/30 02:22:50;;;;;;;30.20;9.70;;;;;;;12.20;67.64;101598.97;107612;1255;108081;-61
2023/09/30 02:25:18;;;;;;;16.80;8.70;;;;;;;12.18;67.72;101601.66;107645;1253;97848;-63
2023/09/30 02:27:47;;;;;;;23.20;9.10;;;;;;;12.17;67.78;101600.64;107608;1256;97838;-62
2023/09/30 02:30:16;;;;;;;20.60;8.90;;;;;;;12.17;67.71;101598.66;107682;1256;110385;-62
2023/09/30 02:32:46;;;;;;;21.80;9.20;;;;;;;12.15;67.75;101597.28;107497;1254;110027;-62
2023/09/30 02:35:15;;;;;;;29.10;9.80;;;;;;;12.09;67.59;101593.10;107609;1253;107668;-62
2023/09/30 02:37:44;;;;;;;26.50;8.60;;;;;;;12.06;67.69;101589.53;107542;1253;97737;-62
2023/09/30 02:40:14;;;;;;;25.20;9.00;;;;;;;12.03;67.84;101590.80;107646;1251;98380;-62
2023/09/30 02:42:43;;;;;;;21.40;8.70;;;;;;;12.01;67.91;101589.41;107567;1254;110829;-62
2023/09/30 02:45:12;;;;;;;27.50;9.80;;;;;;;11.98;68.33;101591.40;107584;1254;109828;-62
2023/09/30 02:47:41;;;;;;;15.50;9.20;;;;;;;11.94;68.67;101588.90;107546;1256;107328;-61
2023/09/30 02:50:16;;;;;;;31.00;9.60;;;;;;;11.91;68.77;101589.13;107454;1254;97834;-62
2023/09/30 02:52:45;;;;;;;29.30;8.80;;;;;;;11.87;68.61;101590.11;107549;1254;97934;-61
2023/09/30 02:55:13;;;;;;;26.80;9.10;;;;;;;11.87;68.59;101583.33;107640;1254;110632;-61
2023/09/30 02:57:43;;;;;;;20.60;8.70;;;;;;;11.86;68.65;101587.17;107499;1253;108815;-62
2023/09/30 03:00:24;;;;;;;22.20;8.40;;;;;;;11.84;68.72;101585.49;107583;1254;108178;-62
2023/09/30 03:02:53;;;;;;;24.00;9.50;;;;;;;11.83;68.99;101584.39;107545;1252;97953;-61
2023/09/30 03:05:23;;;;;;;22.30;8.90;;;;;;;11.80;69.27;101587.64;107606;1254;97790;-62
2023/09/30 03:07:51;;;;;;;24.50;8.50;;;;;;;11.79;69.23;101590.27;107590;1255;110953;-61
2023/09/30 03:10:20;;;;;;;21.60;9.00;;;;;;;11.77;69.29;101589.52;107522;1254;109151;-62
2023/09/30 03:12:50;;;;;;;16.40;8.10;;;;;;;11.77;69.32;101592.55;107565;1254;108061;-61
2023/09/30 03:15:18;;;;;;;29.20;9.60;;;;;;;11.75;69.09;101590.00;107615;1254;97855;-61
2023/09/30 03:17:47;;;;;;;22.10;8.70;;;;;;;11.73;69.24;101594.27;107625;1251;98362;-62
2023/09/30 03:20:20;;;;;;;15.00;8.50;;;;;;;11.70;69.25;101588.98;107639;1255;110854;-62
2023/09/30 03:22:49;;;;;;;23.30;8.00;;;;;;;11.67;69.24;101589.59;107576;1253;109531;-62
2023/09/30 03:25:20;;;;;;;29.00;8.80;;;;;;;11.63;69.18;101590.59;107640;1253;108424;-61
2023/09/30 03:27:49;;;;;;;20.30;7.90;;;;;;;11.64;69.26;101596.30;107527;1257;97963;-61
2023/09/30 03:30:19;;;;;;;21.30;8.50;;;;;;;11.65;69.38;101596.42;107592;1251;97746;-62
2023/09/30 03:32:48;;;;;;;16.30;8.70;;;;;;;11.63;69.35;101595.48;107571;1254;111029;-62
2023/09/30 03:35:17;;;;;;;23.90;9.90;;;;;;;11.62;69.19;101595.35;107545;1254;108911;-63
2023/09/30 03:37:47;;;;;;;17.60;8.80;;;;;;;11.61;69.06;101594.20;107546;1253;108472;-62
2023/09/30 03:40:19;;;;;;;16.50;8.30;;;;;;;11.61;68.97;101597.58;107616;1256;97986;-62
2023/09/30 03:42:51;;;;;;;24.10;8.90;;;;;;;11.62;68.87;101597.52;107582;1254;97925;-63
2023/09/30 03:45:20;;;;;;;19.90;7.50;;;;;;;11.60;68.83;101602.38;107586;1254;111049;-61
2023/09/30 03:47:50;;;;;;;29.50;8.60;;;;;;;11.56;68.67;101597.48;107549;1254;107639;-61
2023/09/30 03:50:21;;;;;;;23.60;8.20;;;;;;;11.54;68.83;101596.02;107625;1254;108507;-62
2023/09/30 03:52:50;;;;;;;21.90;8.60;;;;;;;11.52;68.80;101600.47;107613;1253;97847;-62
2023/09/30 03:55:20;;;;;;;18.40;8.30;;;;;;;11.52;68.68;101601.20;107599;1254;97803;-62
2023/09/30 03:57:51;;;;;;;22.00;8.90;;;;;;;11.51;68.81;101597.98;107545;1253;111901;-62
2023/09/30 04:00:21;;;;;;;26.80;8.40;;;;;;;11.49;68.95;101597.83;107562;1256;109210;-62
2023/09/30 04:02:54;;;;;;;20.40;8.10;;;;;;;11.47;69.02;101596.19;107520;1254;107925;-61
2023/09/30 04:05:29;;;;;;;27.90;8.40;;;;;;;11.44;69.04;101600.02;107560;1257;97730;-62
2023/09/30 04:07:57;;;;;;;16.50;7.90;;;;;;;11.41;68.90;101600.27;107551;1254;97898;-61
2023/09/30 04:10:26;;;;;;;26.40;8.00;;;;;;;11.40;69.00;101609.70;107554;1252;112299;-62
2023/09/30 04:12:54;;;;;;;29.50;8.40;;;;;;;11.35;69.05;101604.83;107642;1252;109452;-63
2023/09/30 04:15:22;;;;;;;29.00;9.30;;;;;;;11.31;69.00;101603.71;107561;1255;108325;-62
2023/09/30 04:17:53;;;;;;;22.10;8.40;;;;;;;11.30;69.03;101606.69;107517;1254;97825;-62
2023/09/30 04:20:23;;;;;;;26.10;9.10;;;;;;;11.29;69.26;101611.41;107576;1254;97564;-62
2023/09/30 04:22:57;;;;;;;23.80;8.80;;;;;;;11.28;69.37;101611.52;107609;1254;111847;-62
2023/09/30 04:25:26;;;;;;;28.00;8.30;;;;;;;11.26;69.20;101612.37;107580;1254;110081;-62
2023/09/30 04:27:55;;;;;;;36.40;9.20;;;;;;;11.24;69.35;101615.76;107555;1253;108025;-63
2023/09/30 04:30:23;;;;;;;16.20;9.30;;;;;;;11.23;69.55;101615.84;107578;1254;97819;-63
2023/09/30 04:32:52;;;;;;;20.70;8.10;;;;;;;11.20;69.79;101620.39;107572;1253;97572;-63
2023/09/30 04:35:21;;;;;;;24.70;8.30;;;;;;;11.17;70.04;101619.50;107626;1254;110415;-63
2023/09/30 04:37:51;;;;;;;21.20;8.20;;;;;;;11.17;69.82;101621.16;107568;1254;109998;-62
2023/09/30 04:40:21;;;;;;;25.30;9.10;;;;;;;11.15;69.88;101619.87;107507;1254;107314;-61
2023/09/30 04:42:50;;;;;;;29.40;8.70;;;;;;;11.15;69.82;101622.39;107541;1251;97841;-61
2023/09/30 04:45:24;;;;;;;24.60;9.40;;;;;;;11.17;70.04;101622.41;107600;1254;97922;-62
2023/09/30 04:47:55;;;;;;;21.50;9.40;;;;;;;11.20;69.91;101626.29;107567;1253;111715;-62
2023/09/30 04:50:23;;;;;;;31.20;9.80;;;;;;;11.23;69.89;101627.28;107632;1254;109470;-62
2023/09/30 04:52:53;;;;;;;22.80;9.30;;;;;;;11.27;69.86;101626.80;107554;1254;107661;-62
2023/09/30 04:55:21;;;;;;;20.00;9.10;;;;;;;11.33;69.70;101628.23;107552;1253;98550;-61
2023/09/30 04:57:50;;;;;;;21.40;9.50;;;;;;;11.38;69.79;101631.21;107513;1254;98385;-61
2023/09/30 05:00:25;;;;;;;21.70;9.10;;;;;;;11.41;69.59;101631.13;107589;1254;111272;-62
2023/09/30 05:02:55;;;;;;;29.40;10.90;;;;;;;11.46;69.56;101632.23;107500;1253;110131;-61
2023/09/30 05:05:24;;;;;;;27.40;10.60;;;;;;;11.52;69.52;101635.52;107562;1253;108757;-62
2023/09/30 05:07:52;;;;;;;32.40;10.60;;;;;;;11.57;69.44;101636.74;107575;1253;97821;-63
2023/09/30 05:10:21;;;;;;;22.50;10.40;;;;;;;11.63;69.46;101640.39;107570;1253;98471;-62
2023/09/30 05:12:49;;;;;;;18.60;9.70;;;;;;;11.69;69.33;101641.70;107614;1253;111683;-62
2023/09/30 05:15:19;;;;;;;31.50;10.80;;;;;;;11.75;69.19;101642.10;107626;1254;109998;-62
2023/09/30 05:17:48;;;;;;;34.70;11.20;;;;;;;11.82;69.14;101638.48;107609;1254;108176;-62
2023/09/30 05:20:17;;;;;;;29.20;11.20;;;;;;;11.90;69.18;101641.52;107618;1256;97905;-62
2023/09/30 05:22:46;;;;;;;27.10;10.70;;;;;;;11.96;69.11;101641.04;107598;1254;98373;-61
2023/09/30 05:25:16;;;;;;;26.70;11.40;;;;;;;12.01;69.16;101645.10;107666;1254;112392;-62
2023/09/30 05:27:47;;;;;;;150.50;108.80;;;;;;;12.08;69.04;101644.05;107662;1251;108984;-62
2023/09/30 05:30:17;;;;;;;23.20;10.50;;;;;;;12.15;68.84;101643.98;107573;1253;108618;-61
2023/09/30 05:32:46;;;;;;;27.20;11.80;;;;;;;12.23;68.65;101645.89;107524;1255;97688;-61
2023/09/30 05:35:16;;;;;;;37.50;11.70;;;;;;;12.30;68.62;101647.44;107574;1254;98487;-62
2023/09/30 05:37:46;;;;;;;24.60;12.00;;;;;;;12.39;68.44;101644.92;107572;1251;111851;-62
2023/09/30 05:40:30;;;;;;;33.30;11.50;;;;;;;12.47;68.12;101647.10;107608;1256;109569;-62
2023/09/30 05:42:59;;;;;;;26.70;12.30;;;;;;;12.57;67.92;101647.24;107558;1251;108283;-62
2023/09/30 05:45:34;;;;;;;36.00;13.00;;;;;;;12.65;67.69;101644.56;107409;1253;97965;-62
2023/09/30 05:48:06;;;;;;;33.50;12.60;;;;;;;12.73;67.44;101644.30;107580;1252;99572;-61
2023/09/30 05:50:36;;;;;;;35.00;12.50;;;;;;;12.82;67.34;101641.58;107607;1256;111425;-62
2023/09/30 05:53:05;;;;;;;27.00;11.90;;;;;;;12.91;67.12;101640.83;107536;1254;109388;-62
2023/09/30 05:55:33;;;;;;;23.80;13.70;;;;;;;13.00;67.13;101641.68;107526;1256;108707;-63
2023/09/30 05:58:01;;;;;;;26.20;12.00;;;;;;;13.09;67.04;101638.00;107434;1253;97833;-63
2023/09/30 06:00:35;;;;;;;26.10;12.40;;;;;;;13.19;66.78;101637.52;107601;1253;97770;-63
2023/09/30 06:03:07;;;;;;;26.40;11.80;;;;;;;13.28;66.65;101637.62;107560;1252;112025;-62
2023/09/30 06:05:40;;;;;;;37.70;12.40;;;;;;;13.38;66.48;101633.42;107569;1254;110000;-62
2023/09/30 06:08:16;;;;;;;32.50;11.90;;;;;;;13.48;66.36;101640.86;107620;1253;107169;-62
2023/09/30 06:10:44;;;;;;;29.20;11.50;;;;;;;13.57;66.15;101639.15;107518;1253;98492;-62
2023/09/30 06:13:13;;;;;;;31.40;11.30;;;;;;;13.66;65.13;101640.17;107581;1254;97714;-62
2023/09/30 06:15:43;;;;;;;29.60;11.90;;;;;;;13.74;64.68;101644.36;107627;1253;111676;-62
2023/09/30 06:18:13;;;;;;;28.10;11.50;;;;;;;13.81;64.06;101643.15;107594;1254;108851;-62
2023/09/30 06:20:42;;;;;;;19.90;11.30;;;;;;;13.88;63.25;101646.69;107633;1251;108229;-62
2023/09/30 06:23:11;;;;;;;26.90;12.40;;;;;;;13.95;63.05;101644.08;107629;1255;97944;-63
2023/09/30 06:25:39;;;;;;;32.10;11.80;;;;;;;14.04;62.41;101647.66;107652;1251;98366;-63
2023/09/30 06:28:09;;;;;;;27.60;12.00;;;;;;;14.11;62.22;101649.73;107596;1255;112227;-63
2023/09/30 06:30:41;;;;;;;33.70;12.40;;;;;;;14.18;61.68;101645.89;107595;1254;109927;-62
2023/09/30 06:33:12;;;;;;;32.20;11.40;;;;;;;14.28;61.48;101648.55;107612;1251;108594;-63
2023/09/30 06:35:50;;;;;;;28.60;12.30;;;;;;;14.35;61.01;101648.64;107641;1251;97735;-63
2023/09/30 06:38:19;;;;;;;27.40;10.70;;;;;;;14.43;60.65;101645.42;107589;1251;98351;-63
2023/09/30 06:40:47;;;;;;;25.40;11.50;;;;;;;14.49;60.24;101643.75;107639;1255;110811;-63
2023/09/30 06:43:16;;;;;;;27.80;11.20;;;;;;;14.56;59.72;101645.85;107615;1251;109253;-62
2023/09/30 06:45:46;;;;;;;27.10;12.00;;;;;;;14.63;59.53;101640.94;107634;1251;108581;-62
2023/09/30 06:48:15;;;;;;;28.60;11.90;;;;;;;14.70;59.51;101641.70;107511;1254;97957;-62
2023/09/30 06:50:48;;;;;;;24.90;10.90;;;;;;;14.79;59.55;101638.59;107677;1251;97838;-62
2023/09/30 06:53:18;;;;;;;24.10;10.80;;;;;;;14.88;59.58;101639.66;107675;1254;111211;-62
2023/09/30 06:55:46;;;;;;;29.10;12.20;;;;;;;14.97;58.96;101640.13;107648;1253;108124;-62
2023/09/30 06:58:20;;;;;;;28.10;12.00;;;;;;;15.09;58.52;101638.17;107626;1251;108575;-62
2023/09/30 07:00:50;;;;;;;21.70;12.00;;;;;;;15.20;58.29;101638.20;107584;1254;97815;-61
2023/09/30 07:03:19;;;;;;;35.50;10.90;;;;;;;15.31;58.20;101640.18;107692;1251;97885;-63
2023/09/30 07:06:00;;;;;;;28.40;11.90;;;;;;;15.42;58.00;101642.77;107640;1254;112311;-62
2023/09/30 07:08:31;;;;;;;26.10;11.40;;;;;;;15.52;57.68;101642.23;107580;1252;110059;-62
2023/09/30 07:11:00;;;;;;;24.40;12.30;;;;;;;15.61;57.49;101642.64;107557;1254;107894;-63
2023/09/30 07:13:28;;;;;;;26.80;13.00;;;;;;;15.70;57.19;101637.78;107618;1251;97850;-62
2023/09/30 07:15:56;;;;;;;29.10;11.30;;;;;;;15.80;57.03;101640.43;107657;1251;97710;-62
2023/09/30 07:18:25;;;;;;;25.50;10.80;;;;;;;15.92;56.75;101635.66;107555;1251;111841;-63
2023/09/30 07:20:53;;;;;;;23.80;11.60;;;;;;;16.05;56.49;101638.79;107576;1255;109849;-62
2023/09/30 07:23:22;;;;;;;23.70;11.80;;;;;;;16.17;55.88;101635.55;107633;1251;107802;-63
2023/09/30 07:25:50;;;;;;;19.30;10.90;;;;;;;16.31;55.14;101636.96;107584;1251;97797;-63
2023/09/30 07:28:19;;;;;;;34.10;11.70;;;;;;;16.42;54.28;101640.17;107618;1254;97810;-65
2023/09/30 07:30:47;;;;;;;34.10;15.60;;;;;;;16.56;54.79;101637.39;107588;1254;111944;-62
2023/09/30 07:33:16;;;;;;;35.40;16.80;;;;;;;16.70;54.80;101633.77;107565;1254;109824;-61
2023/09/30 07:35:45;;;;;;;41.60;13.20;;;;;;;16.84;54.06;101630.92;107576;1256;107398;-63
2023/09/30 07:38:14;;;;;;;28.60;11.00;;;;;;;16.98;53.36;101628.64;107633;1254;97844;-64
2023/09/30 07:40:42;;;;;;;32.10;9.50;;;;;;;17.12;52.78;101629.71;107568;1253;98347;-63
2023/09/30 07:43:12;;;;;;;18.90;9.70;;;;;;;17.26;52.74;101626.83;107612;1256;110766;-62
2023/09/30 07:45:43;;;;;;;25.80;8.90;;;;;;;17.43;52.71;101625.64;107594;1254;108829;-62
2023/09/30 07:48:12;;;;;;;29.70;10.50;;;;;;;17.58;52.25;101623.04;107607;1251;107048;-63
2023/09/30 07:50:42;;;;;;;21.10;9.00;;;;;;;17.73;51.41;101627.16;107579;1251;97848;-62
2023/09/30 07:53:12;;;;;;;22.40;11.00;;;;;;;17.88;50.74;101626.38;107612;1251;97821;-63
2023/09/30 07:55:40;;;;;;;29.60;9.70;;;;;;;18.04;50.69;101625.22;107576;1252;111759;-63
2023/09/30 07:58:08;;;;;;;27.40;10.40;;;;;;;18.21;50.30;101619.48;107573;1251;110215;-62
2023/09/30 08:00:36;;;;;;;22.50;9.60;;;;;;;18.36;50.43;101618.56;107587;1253;107665;-63
2023/09/30 08:03:04;;;;;;;30.20;9.90;;;;;;;18.53;49.59;101616.05;107588;1254;97941;-63
2023/09/30 08:05:33;;;;;;;22.20;9.50;;;;;;;18.69;48.94;101615.85;107595;1253;97790;-63
2023/09/30 08:08:02;;;;;;;34.80;10.10;;;;;;;18.85;48.43;101614.27;107534;1252;111251;-63
2023/09/30 08:10:31;;;;;;;32.50;9.60;;;;;;;19.04;48.51;101611.55;107588;1256;109628;-63
2023/09/30 08:13:02;;;;;;;29.90;11.60;;;;;;;19.23;48.85;101610.71;107533;1251;108358;-63
2023/09/30 08:15:30;;;;;;;22.40;9.10;;;;;;;19.44;47.69;101611.21;107597;1252;97837;-64
2023/09/30 08:17:59;;;;;;;29.80;9.40;;;;;;;19.64;46.85;101612.98;107642;1253;97732;-63
2023/09/30 08:20:27;;;;;;;28.90;9.80;;;;;;;19.82;45.21;101610.23;107590;1254;111043;-63
2023/09/30 08:22:56;;;;;;;22.80;8.50;;;;;;;20.04;46.37;101611.40;107595;1254;108605;-63
2023/09/30 08:25:24;;;;;;;23.70;8.90;;;;;;;20.27;45.91;101609.63;107580;1254;108090;-63
2023/09/30 08:27:54;;;;;;;28.90;8.80;;;;;;;20.52;46.07;101609.18;107565;1254;97929;-63
2023/09/30 08:30:22;;;;;;;25.80;8.80;;;;;;;20.77;45.60;101603.92;107551;1256;98386;-63
2023/09/30 08:32:51;;;;;;;27.40;8.60;;;;;;;21.02;44.13;101599.17;107598;1253;112380;-63
2023/09/30 08:35:20;;;;;;;30.10;9.40;;;;;;;21.25;43.75;101598.73;107584;1255;109452;-63
2023/09/30 08:37:48;;;;;;;59.40;11.40;;;;;;;21.49;43.54;101594.33;107538;1254;107684;-62
2023/09/30 08:40:21;;;;;;;27.40;9.00;;;;;;;21.76;42.24;101595.31;107566;1253;97819;-63
2023/09/30 08:42:52;;;;;;;21.60;8.30;;;;;;;21.99;41.30;101593.88;107602;1252;97733;-62
2023/09/30 08:45:21;;;;;;;17.80;9.20;;;;;;;22.22;41.21;101590.14;107677;1252;112108;-63
2023/09/30 08:47:50;;;;;;;29.10;9.50;;;;;;;22.48;39.79;101587.30;107629;1252;110019;-61
2023/09/30 08:50:20;;;;;;;57.40;8.90;;;;;;;22.76;39.83;101587.02;107606;1251;108224;-63
2023/09/30 08:52:50;;;;;;;27.10;8.90;;;;;;;23.07;40.05;101587.58;107582;1253;97887;-63
2023/09/30 08:55:18;;;;;;;21.30;9.10;;;;;;;23.33;39.33;101581.11;107663;1254;98510;-63
2023/09/30 08:57:49;;;;;;;22.00;9.20;;;;;;;23.64;38.87;101578.58;107621;1252;111694;-62
2023/09/30 09:00:19;;;;;;;25.90;9.20;;;;;;;23.94;37.58;101572.59;107633;1254;109328;-63
2023/09/30 09:02:49;;;;;;;27.60;9.60;;;;;;;24.22;36.60;101569.77;107542;1251;108285;-63
2023/09/30 09:05:18;;;;;;;34.30;9.00;;;;;;;24.54;35.97;101570.23;107634;1251;97853;-63
2023/09/30 09:07:47;;;;;;;25.90;8.80;;;;;;;24.90;35.99;101568.67;107592;1252;97819;-63
2023/09/30 09:10:16;;;;;;;26.00;8.90;;;;;;;25.43;35.89;101562.70;107569;1254;111196;-62
2023/09/30 09:12:55;;;;;;;21.70;8.00;;;;;;;26.13;34.87;101558.75;107550;1251;109239;-63
2023/09/30 09:15:26;;;;;;;25.20;8.60;;;;;;;27.01;33.61;101553.80;107558;1253;108302;-63
2023/09/30 09:17:55;;;;;;;23.10;8.20;;;;;;;27.69;31.48;101554.33;107621;1255;97907;-62
2023/09/30 09:20:28;;;;;;;21.80;7.70;;;;;;;28.34;30.74;101554.56;107595;1252;97749;-63
2023/09/30 09:23:00;;;;;;;37.40;8.90;;;;;;;28.99;31.02;101552.96;107628;1253;110761;-62
2023/09/30 09:25:28;;;;;;;20.80;11.60;;;;;;;29.80;30.87;101553.59;107581;1252;109528;-63
2023/09/30 09:27:56;;;;;;;17.60;7.10;;;;;;;30.49;29.74;101548.49;107582;1254;107632;-62
2023/09/30 09:30:27;;;;;;;25.60;7.60;;;;;;;31.12;28.68;101549.13;107582;1252;97813;-62
2023/09/30 09:33:03;;;;;;;24.90;7.10;;;;;;;31.66;27.99;101549.23;107616;1251;98385;-62
2023/09/30 09:35:33;;;;;;;19.30;10.60;;;;;;;32.28;27.96;101544.24;107581;1256;111400;-61
2023/09/30 09:38:06;;;;;;;22.00;11.80;;;;;;;32.85;26.27;101543.17;107648;1255;108906;-62
2023/09/30 09:40:40;;;;;;;12.90;6.20;;;;;;;33.29;25.42;101540.83;107567;1256;107520;-63
2023/09/30 09:43:10;;;;;;;22.60;7.60;;;;;;;33.85;25.47;101538.89;107601;1251;97921;-63
2023/09/30 09:45:39;;;;;;;42.20;8.80;;;;;;;34.47;25.22;101536.46;107637;1251;98357;-64
2023/09/30 09:48:09;;;;;;;29.70;7.40;;;;;;;34.99;24.86;101530.62;107559;1253;112239;-63
2023/09/30 09:50:38;;;;;;;33.00;7.10;;;;;;;35.45;23.05;101524.27;107657;1251;108823;-62
2023/09/30 09:53:08;;;;;;;52.30;10.80;;;;;;;35.70;22.71;101523.25;107615;1255;107119;-62
2023/09/30 09:55:39;;;;;;;219.00;21.60;;;;;;;36.17;22.50;101524.20;107599;1256;97835;-63
2023/09/30 09:58:10;;;;;;;28.00;6.90;;;;;;;36.75;21.74;101522.19;107614;1251;98001;-62
2023/09/30 10:00:40;;;;;;;19.70;6.50;;;;;;;37.01;20.28;101522.63;107584;1251;111967;-62
2023/09/30 10:03:09;;;;;;;13.90;6.10;;;;;;;37.11;19.66;101517.73;107539;1251;109732;-63
2023/09/30 10:05:39;;;;;;;26.30;5.80;;;;;;;37.40;20.03;101517.23;107577;1252;107377;-62
2023/09/30 10:08:14;;;;;;;15.90;5.20;;;;;;;37.78;19.17;101512.61;107042;1253;713400;-66
2023/09/30 10:10:44;;;;;;;12.90;4.40;;;;;;;38.22;18.77;101504.40;107553;1256;98382;-63
2023/09/30 10:13:51;;;;;;;8.70;4.20;;;;;;;38.57;18.92;101499.77;107666;1256;110976;-63
2023/09/30 10:16:35;;;;;;;14.90;5.70;;;;;;;39.14;17.67;101494.52;107604;1254;109342;-63
2023/09/30 10:19:12;;;;;;;8.10;3.40;;;;;;;39.41;17.62;101485.00;107556;1255;107782;-63
2023/09/30 10:22:26;;;;;;;10.00;4.00;;;;;;;39.64;16.53;101482.80;107629;1254;97854;-62
2023/09/30 10:24:59;;;;;;;9.00;3.50;;;;;;;39.58;16.51;101479.40;107573;1254;97102;-62
2023/09/30 10:27:33;;;;;;;15.70;4.10;;;;;;;39.78;16.09;101470.71;107577;1255;111541;-62
2023/09/30 10:30:01;;;;;;;18.30;3.50;;;;;;;39.98;14.73;101471.46;107557;1253;109560;-62
2023/09/30 10:32:52;;;;;;;9.00;3.20;;;;;;;40.17;15.84;101470.73;107606;1255;108535;-63
2023/09/30 10:35:31;;;;;;;9.00;3.10;;;;;;;40.60;15.70;101464.81;107637;1253;97839;-65
2023/09/30 10:38:21;;;;;;;9.10;3.60;;;;;;;41.04;15.34;101462.15;107568;1251;98388;-63
2023/09/30 10:40:52;;;;;;;11.20;4.00;;;;;;;41.29;14.89;101458.11;107602;1254;112342;-63
2023/09/30 10:43:33;;;;;;;9.50;3.40;;;;;;;41.61;14.73;101456.43;107639;1254;108810;-63
2023/09/30 10:46:06;;;;;;;16.90;3.20;;;;;;;41.83;14.56;101449.00;107652;1251;108557;-63
2023/09/30 10:48:35;;;;;;;12.30;3.90;;;;;;;41.94;13.96;101443.51;107602;1253;97932;-63
2023/09/30 10:51:23;;;;;;;20.00;3.80;;;;;;;42.05;13.98;101438.21;107607;1255;98373;-63
2023/09/30 10:53:59;;;;;;;15.30;3.50;;;;;;;42.21;14.12;101436.92;107544;1254;112810;-63
2023/09/30 10:56:34;;;;;;;8.30;3.10;;;;;;;42.37;12.69;101432.42;107636;1254;109297;-62
2023/09/30 10:59:02;;;;;;;8.00;3.00;;;;;;;41.94;13.06;101429.37;107600;1253;108571;-63
2023/09/30 11:01:35;;;;;;;10.50;3.20;;;;;;;42.04;13.60;101426.95;107537;1254;97826;-63
2023/09/30 11:04:05;;;;;;;10.60;3.20;;;;;;;42.25;13.69;101422.84;107626;1254;97788;-64
2023/09/30 11:06:34;;;;;;;12.80;3.60;;;;;;;42.33;12.54;101420.15;107593;1251;110768;-63
2023/09/30 11:09:03;;;;;;;10.10;3.00;;;;;;;42.35;13.09;101414.94;107553;1254;110073;-63
2023/09/30 11:11:42;;;;;;;13.20;3.20;;;;;;;42.30;13.26;101418.49;107606;1253;108145;-63
2023/09/30 11:14:30;;;;;;;13.40;4.70;;;;;;;42.25;13.38;101410.90;107607;1251;97818;-63
2023/09/30 11:17:01;;;;;;;10.40;3.50;;;;;;;42.08;13.39;101411.38;107516;1253;97880;-62